Terminal Aerodrome Forecast
Issued by NWS

Home | Current Version | Previous Version | Graphics & Text | Print | Product List | Glossary On
Versions: 1 2 3 4 5 6 7 8 9 10 11 12 13
587
FTUS43 KIWX 160521
TAFSBN
TAF
KSBN 160521Z 1606/1706 35004KT P6SM BKN250
     FM160900 13004KT 4SM BR SCT200
     FM161300 13005KT P6SM SCT060
     FM170300 14006KT P6SM VCSH BKN060=

USA.gov is the U.S. government's official web portal to all federal, state and local government web resources and services.